sensor_id;sensor_type;location;lat;lon;timestamp;P1;durP1;ratioP1;P2;durP2;ratioP2
4106;SDS011;21906;50.812;7.132;2022-10-16T00:01:47;4.50;;;4.00;;
4106;SDS011;21906;50.812;7.132;2022-10-16T00:04:13;4.53;;;4.17;;
4106;SDS011;21906;50.812;7.132;2022-10-16T00:06:39;4.33;;;4.03;;
4106;SDS011;21906;50.812;7.132;2022-10-16T00:09:05;3.90;;;3.70;;
4106;SDS011;21906;50.812;7.132;2022-10-16T00:11:33;3.60;;;3.40;;
4106;SDS011;21906;50.812;7.132;2022-10-16T00:14:02;3.70;;;3.50;;
4106;SDS011;21906;50.812;7.132;2022-10-16T00:16:29;4.40;;;4.10;;
4106;SDS011;21906;50.812;7.132;2022-10-16T00:18:55;4.13;;;3.77;;
4106;SDS011;21906;50.812;7.132;2022-10-16T00:21:23;3.60;;;3.40;;
4106;SDS011;21906;50.812;7.132;2022-10-16T00:23:55;3.70;;;3.50;;
4106;SDS011;21906;50.812;7.132;2022-10-16T00:26:24;3.90;;;3.60;;
4106;SDS011;21906;50.812;7.132;2022-10-16T00:28:50;3.60;;;3.40;;
4106;SDS011;21906;50.812;7.132;2022-10-16T00:31:17;3.57;;;3.37;;
4106;SDS011;21906;50.812;7.132;2022-10-16T00:33:44;3.67;;;3.47;;
4106;SDS011;21906;50.812;7.132;2022-10-16T00:36:11;3.57;;;3.37;;
4106;SDS011;21906;50.812;7.132;2022-10-16T00:38:38;4.70;;;3.23;;
4106;SDS011;21906;50.812;7.132;2022-10-16T00:41:05;3.57;;;3.27;;
4106;SDS011;21906;50.812;7.132;2022-10-16T00:49:03;3.30;;;3.10;;
4106;SDS011;21906;50.812;7.132;2022-10-16T00:54:31;3.60;;;3.30;;
4106;SDS011;21906;50.812;7.132;2022-10-16T00:57:00;3.63;;;3.33;;
4106;SDS011;21906;50.812;7.132;2022-10-16T00:59:29;3.20;;;3.00;;
4106;SDS011;21906;50.812;7.132;2022-10-16T01:01:59;3.03;;;2.83;;
4106;SDS011;21906;50.812;7.132;2022-10-16T01:04:34;3.67;;;3.47;;
4106;SDS011;21906;50.812;7.132;2022-10-16T01:12:45;3.10;;;2.90;;
4106;SDS011;21906;50.812;7.132;2022-10-16T01:15:36;4.57;;;3.17;;
4106;SDS011;21906;50.812;7.132;2022-10-16T01:20:48;3.10;;;2.90;;
4106;SDS011;21906;50.812;7.132;2022-10-16T01:23:26;3.33;;;3.00;;
4106;SDS011;21906;50.812;7.132;2022-10-16T01:28:41;3.13;;;2.90;;
4106;SDS011;21906;50.812;7.132;2022-10-16T01:31:10;3.30;;;3.10;;
4106;SDS011;21906;50.812;7.132;2022-10-16T01:33:42;4.33;;;3.00;;
4106;SDS011;21906;50.812;7.132;2022-10-16T01:36:15;3.20;;;3.00;;
4106;SDS011;21906;50.812;7.132;2022-10-16T01:38:47;3.93;;;3.57;;
4106;SDS011;21906;50.812;7.132;2022-10-16T01:43:53;3.27;;;3.00;;
4106;SDS011;21906;50.812;7.132;2022-10-16T01:46:28;3.10;;;2.90;;
4106;SDS011;21906;50.812;7.132;2022-10-16T01:48:56;3.50;;;3.30;;
4106;SDS011;21906;50.812;7.132;2022-10-16T01:51:24;2.80;;;2.60;;
4106;SDS011;21906;50.812;7.132;2022-10-16T01:53:52;3.20;;;2.80;;
4106;SDS011;21906;50.812;7.132;2022-10-16T01:56:20;3.03;;;2.80;;
4106;SDS011;21906;50.812;7.132;2022-10-16T01:59:21;2.83;;;2.63;;
4106;SDS011;21906;50.812;7.132;2022-10-16T02:01:42;3.40;;;3.20;;
4106;SDS011;21906;50.812;7.132;2022-10-16T02:04:17;3.00;;;2.80;;
4106;SDS011;21906;50.812;7.132;2022-10-16T02:06:47;3.00;;;2.80;;
4106;SDS011;21906;50.812;7.132;2022-10-16T02:09:13;3.20;;;3.00;;
4106;SDS011;21906;50.812;7.132;2022-10-16T02:11:41;3.20;;;3.00;;
4106;SDS011;21906;50.812;7.132;2022-10-16T02:14:07;3.57;;;3.30;;
4106;SDS011;21906;50.812;7.132;2022-10-16T02:16:51;2.90;;;2.70;;
4106;SDS011;21906;50.812;7.132;2022-10-16T02:19:17;3.67;;;3.00;;
4106;SDS011;21906;50.812;7.132;2022-10-16T02:21:55;3.27;;;3.07;;
4106;SDS011;21906;50.812;7.132;2022-10-16T02:27:07;3.10;;;2.90;;
4106;SDS011;21906;50.812;7.132;2022-10-16T02:29:42;3.20;;;3.00;;
4106;SDS011;21906;50.812;7.132;2022-10-16T02:32:15;3.20;;;3.00;;
4106;SDS011;21906;50.812;7.132;2022-10-16T02:34:45;3.13;;;2.80;;
4106;SDS011;21906;50.812;7.132;2022-10-16T02:37:13;3.30;;;3.00;;
4106;SDS011;21906;50.812;7.132;2022-10-16T02:39:39;4.43;;;3.10;;
4106;SDS011;21906;50.812;7.132;2022-10-16T02:42:10;2.90;;;2.70;;
4106;SDS011;21906;50.812;7.132;2022-10-16T02:44:39;3.20;;;2.90;;
4106;SDS011;21906;50.812;7.132;2022-10-16T02:47:05;3.33;;;3.13;;
4106;SDS011;21906;50.812;7.132;2022-10-16T02:49:30;3.07;;;2.87;;
4106;SDS011;21906;50.812;7.132;2022-10-16T02:51:56;3.10;;;2.90;;
4106;SDS011;21906;50.812;7.132;2022-10-16T02:54:22;3.00;;;2.80;;
4106;SDS011;21906;50.812;7.132;2022-10-16T02:56:47;3.33;;;3.13;;
4106;SDS011;21906;50.812;7.132;2022-10-16T02:59:13;2.97;;;2.77;;
4106;SDS011;21906;50.812;7.132;2022-10-16T03:01:39;4.30;;;2.83;;
4106;SDS011;21906;50.812;7.132;2022-10-16T03:04:04;2.93;;;2.60;;
4106;SDS011;21906;50.812;7.132;2022-10-16T03:06:30;2.90;;;2.70;;
4106;SDS011;21906;50.812;7.132;2022-10-16T03:08:55;3.03;;;2.80;;
4106;SDS011;21906;50.812;7.132;2022-10-16T03:11:21;2.90;;;2.70;;
4106;SDS011;21906;50.812;7.132;2022-10-16T03:13:47;2.80;;;2.60;;
4106;SDS011;21906;50.812;7.132;2022-10-16T03:16:12;2.90;;;2.60;;
4106;SDS011;21906;50.812;7.132;2022-10-16T03:18:38;2.63;;;2.50;;
4106;SDS011;21906;50.812;7.132;2022-10-16T03:21:04;3.90;;;2.50;;
4106;SDS011;21906;50.812;7.132;2022-10-16T03:23:29;2.77;;;2.57;;
4106;SDS011;21906;50.812;7.132;2022-10-16T03:25:55;2.60;;;2.50;;
4106;SDS011;21906;50.812;7.132;2022-10-16T03:28:21;2.50;;;2.07;;
4106;SDS011;21906;50.812;7.132;2022-10-16T03:30:46;2.80;;;2.60;;
4106;SDS011;21906;50.812;7.132;2022-10-16T03:33:12;4.80;;;2.50;;
4106;SDS011;21906;50.812;7.132;2022-10-16T03:35:37;2.43;;;2.23;;
4106;SDS011;21906;50.812;7.132;2022-10-16T03:38:03;2.30;;;2.20;;
4106;SDS011;21906;50.812;7.132;2022-10-16T03:40:29;2.03;;;1.83;;
4106;SDS011;21906;50.812;7.132;2022-10-16T03:42:57;2.03;;;1.93;;
4106;SDS011;21906;50.812;7.132;2022-10-16T03:45:23;2.37;;;2.17;;
4106;SDS011;21906;50.812;7.132;2022-10-16T03:47:49;2.83;;;1.83;;
4106;SDS011;21906;50.812;7.132;2022-10-16T03:50:15;1.80;;;1.70;;
4106;SDS011;21906;50.812;7.132;2022-10-16T03:52:41;2.37;;;1.87;;
4106;SDS011;21906;50.812;7.132;2022-10-16T03:55:06;2.90;;;2.20;;
4106;SDS011;21906;50.812;7.132;2022-10-16T03:57:32;1.80;;;1.70;;
4106;SDS011;21906;50.812;7.132;2022-10-16T03:59:58;2.30;;;2.10;;
4106;SDS011;21906;50.812;7.132;2022-10-16T04:02:24;2.00;;;1.90;;
4106;SDS011;21906;50.812;7.132;2022-10-16T04:04:50;2.10;;;2.00;;
4106;SDS011;21906;50.812;7.132;2022-10-16T04:07:15;3.50;;;1.90;;
4106;SDS011;21906;50.812;7.132;2022-10-16T04:09:41;1.90;;;1.80;;
4106;SDS011;21906;50.812;7.132;2022-10-16T04:12:07;3.17;;;1.73;;
4106;SDS011;21906;50.812;7.132;2022-10-16T04:14:32;1.77;;;1.67;;
4106;SDS011;21906;50.812;7.132;2022-10-16T04:16:59;2.30;;;1.90;;
4106;SDS011;21906;50.812;7.132;2022-10-16T04:19:24;2.10;;;1.90;;
4106;SDS011;21906;50.812;7.132;2022-10-16T04:21:51;2.27;;;2.07;;
4106;SDS011;21906;50.812;7.132;2022-10-16T04:24:17;2.10;;;1.90;;
4106;SDS011;21906;50.812;7.132;2022-10-16T04:26:42;2.20;;;2.00;;
4106;SDS011;21906;50.812;7.132;2022-10-16T04:29:08;2.10;;;1.97;;
4106;SDS011;21906;50.812;7.132;2022-10-16T04:31:33;2.00;;;1.90;;
4106;SDS011;21906;50.812;7.132;2022-10-16T04:33:59;2.03;;;1.70;;
4106;SDS011;21906;50.812;7.132;2022-10-16T04:36:25;2.27;;;1.93;;
4106;SDS011;21906;50.812;7.132;2022-10-16T04:38:50;2.10;;;2.00;;
4106;SDS011;21906;50.812;7.132;2022-10-16T04:41:16;1.90;;;1.80;;
4106;SDS011;21906;50.812;7.132;2022-10-16T04:43:41;1.90;;;1.80;;
4106;SDS011;21906;50.812;7.132;2022-10-16T04:46:07;2.00;;;1.90;;
4106;SDS011;21906;50.812;7.132;2022-10-16T04:48:33;2.00;;;1.90;;
4106;SDS011;21906;50.812;7.132;2022-10-16T04:50:58;2.00;;;1.80;;
4106;SDS011;21906;50.812;7.132;2022-10-16T04:53:24;2.60;;;2.07;;
4106;SDS011;21906;50.812;7.132;2022-10-16T04:55:50;3.60;;;2.00;;
4106;SDS011;21906;50.812;7.132;2022-10-16T04:58:16;3.43;;;1.90;;
4106;SDS011;21906;50.812;7.132;2022-10-16T05:00:42;2.00;;;1.83;;
4106;SDS011;21906;50.812;7.132;2022-10-16T05:03:08;2.40;;;2.20;;
4106;SDS011;21906;50.812;7.132;2022-10-16T05:05:35;2.03;;;1.93;;
4106;SDS011;21906;50.812;7.132;2022-10-16T05:08:01;2.00;;;1.90;;
4106;SDS011;21906;50.812;7.132;2022-10-16T05:10:27;1.97;;;1.87;;
4106;SDS011;21906;50.812;7.132;2022-10-16T05:12:53;2.30;;;2.10;;
4106;SDS011;21906;50.812;7.132;2022-10-16T05:15:19;2.37;;;2.17;;
4106;SDS011;21906;50.812;7.132;2022-10-16T05:17:44;2.33;;;2.23;;
4106;SDS011;21906;50.812;7.132;2022-10-16T05:20:11;1.90;;;1.80;;
4106;SDS011;21906;50.812;7.132;2022-10-16T05:22:36;2.30;;;2.10;;
4106;SDS011;21906;50.812;7.132;2022-10-16T05:25:02;2.13;;;1.93;;
4106;SDS011;21906;50.812;7.132;2022-10-16T05:27:28;2.23;;;2.13;;
4106;SDS011;21906;50.812;7.132;2022-10-16T05:29:54;4.10;;;3.67;;
4106;SDS011;21906;50.812;7.132;2022-10-16T05:32:20;5.33;;;4.93;;
4106;SDS011;21906;50.812;7.132;2022-10-16T05:34:45;4.80;;;4.40;;
4106;SDS011;21906;50.812;7.132;2022-10-16T05:37:11;4.60;;;3.80;;
4106;SDS011;21906;50.812;7.132;2022-10-16T05:39:40;3.33;;;3.03;;
4106;SDS011;21906;50.812;7.132;2022-10-16T05:42:06;2.57;;;2.40;;
4106;SDS011;21906;50.812;7.132;2022-10-16T05:44:32;3.17;;;2.80;;
4106;SDS011;21906;50.812;7.132;2022-10-16T05:46:58;3.07;;;2.47;;
4106;SDS011;21906;50.812;7.132;2022-10-16T05:49:24;2.90;;;2.20;;
4106;SDS011;21906;50.812;7.132;2022-10-16T05:51:49;3.00;;;2.50;;
4106;SDS011;21906;50.812;7.132;2022-10-16T05:54:15;2.57;;;2.37;;
4106;SDS011;21906;50.812;7.132;2022-10-16T05:56:41;2.53;;;2.43;;
4106;SDS011;21906;50.812;7.132;2022-10-16T05:59:06;2.60;;;2.40;;
4106;SDS011;21906;50.812;7.132;2022-10-16T06:01:32;2.50;;;2.30;;
4106;SDS011;21906;50.812;7.132;2022-10-16T06:03:58;2.33;;;2.13;;
4106;SDS011;21906;50.812;7.132;2022-10-16T06:06:24;2.73;;;2.50;;
4106;SDS011;21906;50.812;7.132;2022-10-16T06:08:52;2.73;;;2.60;;
4106;SDS011;21906;50.812;7.132;2022-10-16T06:11:20;4.80;;;3.07;;
4106;SDS011;21906;50.812;7.132;2022-10-16T06:13:54;2.60;;;2.40;;
4106;SDS011;21906;50.812;7.132;2022-10-16T06:16:27;3.40;;;3.10;;
4106;SDS011;21906;50.812;7.132;2022-10-16T06:18:53;2.90;;;2.70;;
4106;SDS011;21906;50.812;7.132;2022-10-16T06:21:20;3.93;;;2.40;;
4106;SDS011;21906;50.812;7.132;2022-10-16T06:23:49;2.63;;;2.53;;
4106;SDS011;21906;50.812;7.132;2022-10-16T06:26:16;2.90;;;2.70;;
4106;SDS011;21906;50.812;7.132;2022-10-16T06:28:44;2.80;;;2.70;;
4106;SDS011;21906;50.812;7.132;2022-10-16T06:31:10;2.97;;;2.87;;
4106;SDS011;21906;50.812;7.132;2022-10-16T06:33:37;2.40;;;2.30;;
4106;SDS011;21906;50.812;7.132;2022-10-16T06:36:04;3.10;;;2.80;;
4106;SDS011;21906;50.812;7.132;2022-10-16T06:38:31;3.87;;;2.60;;
4106;SDS011;21906;50.812;7.132;2022-10-16T06:40:57;2.90;;;2.73;;
4106;SDS011;21906;50.812;7.132;2022-10-16T06:43:23;2.90;;;2.70;;
4106;SDS011;21906;50.812;7.132;2022-10-16T06:45:59;3.00;;;2.80;;
4106;SDS011;21906;50.812;7.132;2022-10-16T06:48:26;3.20;;;3.00;;
4106;SDS011;21906;50.812;7.132;2022-10-16T06:51:00;5.63;;;2.87;;
4106;SDS011;21906;50.812;7.132;2022-10-16T06:53:47;2.80;;;2.60;;
4106;SDS011;21906;50.812;7.132;2022-10-16T06:56:19;3.33;;;3.13;;
4106;SDS011;21906;50.812;7.132;2022-10-16T06:58:46;3.40;;;3.20;;
4106;SDS011;21906;50.812;7.132;2022-10-16T07:01:13;3.70;;;3.40;;
4106;SDS011;21906;50.812;7.132;2022-10-16T07:03:40;3.20;;;3.00;;
4106;SDS011;21906;50.812;7.132;2022-10-16T07:06:08;3.13;;;2.93;;
4106;SDS011;21906;50.812;7.132;2022-10-16T07:08:38;3.00;;;2.80;;
4106;SDS011;21906;50.812;7.132;2022-10-16T07:11:06;3.23;;;3.03;;
4106;SDS011;21906;50.812;7.132;2022-10-16T07:13:40;3.30;;;3.10;;
4106;SDS011;21906;50.812;7.132;2022-10-16T07:16:10;3.70;;;3.50;;
4106;SDS011;21906;50.812;7.132;2022-10-16T07:18:45;3.97;;;3.77;;
4106;SDS011;21906;50.812;7.132;2022-10-16T07:21:12;4.90;;;4.60;;
4106;SDS011;21906;50.812;7.132;2022-10-16T07:23:40;5.30;;;5.00;;
4106;SDS011;21906;50.812;7.132;2022-10-16T07:26:06;6.10;;;5.70;;
4106;SDS011;21906;50.812;7.132;2022-10-16T07:28:34;4.83;;;4.63;;
4106;SDS011;21906;50.812;7.132;2022-10-16T07:31:12;5.23;;;4.93;;
4106;SDS011;21906;50.812;7.132;2022-10-16T07:33:40;5.20;;;4.90;;
4106;SDS011;21906;50.812;7.132;2022-10-16T07:36:11;5.93;;;4.90;;
4106;SDS011;21906;50.812;7.132;2022-10-16T07:38:37;4.30;;;4.00;;
4106;SDS011;21906;50.812;7.132;2022-10-16T07:41:10;4.23;;;4.00;;
4106;SDS011;21906;50.812;7.132;2022-10-16T07:43:37;3.70;;;3.50;;
4106;SDS011;21906;50.812;7.132;2022-10-16T07:46:08;3.60;;;3.40;;
4106;SDS011;21906;50.812;7.132;2022-10-16T07:48:34;4.03;;;3.73;;
4106;SDS011;21906;50.812;7.132;2022-10-16T07:51:00;3.77;;;3.43;;
4106;SDS011;21906;50.812;7.132;2022-10-16T07:53:28;4.40;;;4.20;;
4106;SDS011;21906;50.812;7.132;2022-10-16T07:56:00;4.30;;;4.00;;
4106;SDS011;21906;50.812;7.132;2022-10-16T07:58:28;5.83;;;4.20;;
4106;SDS011;21906;50.812;7.132;2022-10-16T08:00:54;4.20;;;3.90;;
4106;SDS011;21906;50.812;7.132;2022-10-16T08:03:20;4.20;;;4.00;;
4106;SDS011;21906;50.812;7.132;2022-10-16T08:05:46;3.70;;;3.50;;
4106;SDS011;21906;50.812;7.132;2022-10-16T08:08:13;3.60;;;3.40;;
4106;SDS011;21906;50.812;7.132;2022-10-16T08:10:40;3.13;;;2.70;;
4106;SDS011;21906;50.812;7.132;2022-10-16T08:13:06;3.93;;;3.50;;
4106;SDS011;21906;50.812;7.132;2022-10-16T08:15:32;3.00;;;2.80;;
4106;SDS011;21906;50.812;7.132;2022-10-16T08:17:58;2.87;;;2.67;;
4106;SDS011;21906;50.812;7.132;2022-10-16T08:20:26;3.60;;;3.30;;
4106;SDS011;21906;50.812;7.132;2022-10-16T08:22:52;4.00;;;3.40;;
4106;SDS011;21906;50.812;7.132;2022-10-16T08:25:19;3.33;;;3.03;;
4106;SDS011;21906;50.812;7.132;2022-10-16T08:27:45;3.57;;;3.00;;
4106;SDS011;21906;50.812;7.132;2022-10-16T08:30:12;3.23;;;3.00;;
4106;SDS011;21906;50.812;7.132;2022-10-16T08:32:38;2.90;;;2.70;;
4106;SDS011;21906;50.812;7.132;2022-10-16T08:35:03;2.47;;;2.27;;
4106;SDS011;21906;50.812;7.132;2022-10-16T08:37:30;2.20;;;2.10;;
4106;SDS011;21906;50.812;7.132;2022-10-16T08:39:56;2.53;;;2.43;;
4106;SDS011;21906;50.812;7.132;2022-10-16T08:48:05;1.93;;;1.83;;
4106;SDS011;21906;50.812;7.132;2022-10-16T08:50:48;2.00;;;1.80;;
4106;SDS011;21906;50.812;7.132;2022-10-16T08:53:27;2.20;;;2.10;;
4106;SDS011;21906;50.812;7.132;2022-10-16T08:55:58;1.90;;;1.80;;
4106;SDS011;21906;50.812;7.132;2022-10-16T08:58:27;2.30;;;2.10;;
4106;SDS011;21906;50.812;7.132;2022-10-16T09:01:04;1.80;;;1.70;;
4106;SDS011;21906;50.812;7.132;2022-10-16T09:11:44;3.00;;;1.70;;
4106;SDS011;21906;50.812;7.132;2022-10-16T09:19:53;1.50;;;1.40;;
4106;SDS011;21906;50.812;7.132;2022-10-16T09:22:25;1.53;;;1.43;;
4106;SDS011;21906;50.812;7.132;2022-10-16T09:24:54;1.60;;;1.50;;
4106;SDS011;21906;50.812;7.132;2022-10-16T09:27:24;1.40;;;1.30;;
4106;SDS011;21906;50.812;7.132;2022-10-16T09:29:50;1.90;;;1.80;;
4106;SDS011;21906;50.812;7.132;2022-10-16T09:32:18;1.50;;;1.30;;
4106;SDS011;21906;50.812;7.132;2022-10-16T09:34:47;1.47;;;1.37;;
4106;SDS011;21906;50.812;7.132;2022-10-16T09:37:19;1.70;;;1.60;;
4106;SDS011;21906;50.812;7.132;2022-10-16T09:39:48;1.40;;;1.30;;
4106;SDS011;21906;50.812;7.132;2022-10-16T09:42:22;2.40;;;1.70;;
4106;SDS011;21906;50.812;7.132;2022-10-16T09:44:57;1.73;;;1.43;;
4106;SDS011;21906;50.812;7.132;2022-10-16T09:47:23;2.10;;;1.70;;
4106;SDS011;21906;50.812;7.132;2022-10-16T09:52:20;1.30;;;1.20;;
4106;SDS011;21906;50.812;7.132;2022-10-16T09:54:50;1.83;;;1.40;;
4106;SDS011;21906;50.812;7.132;2022-10-16T09:57:15;1.43;;;1.33;;
4106;SDS011;21906;50.812;7.132;2022-10-16T09:59:54;1.43;;;1.33;;
4106;SDS011;21906;50.812;7.132;2022-10-16T10:02:28;1.37;;;1.27;;
4106;SDS011;21906;50.812;7.132;2022-10-16T10:04:56;1.30;;;1.20;;
4106;SDS011;21906;50.812;7.132;2022-10-16T10:07:32;1.00;;;0.90;;
4106;SDS011;21906;50.812;7.132;2022-10-16T10:10:02;1.30;;;1.20;;
4106;SDS011;21906;50.812;7.132;2022-10-16T10:15:35;3.00;;;1.10;;
4106;SDS011;21906;50.812;7.132;2022-10-16T10:18:19;1.37;;;0.90;;
4106;SDS011;21906;50.812;7.132;2022-10-16T10:20:56;3.60;;;1.20;;
4106;SDS011;21906;50.812;7.132;2022-10-16T10:23:24;1.80;;;0.90;;
4106;SDS011;21906;50.812;7.132;2022-10-16T10:26:34;1.43;;;0.97;;
4106;SDS011;21906;50.812;7.132;2022-10-16T10:31:51;1.13;;;0.90;;
4106;SDS011;21906;50.812;7.132;2022-10-16T10:39:58;2.03;;;1.00;;
4106;SDS011;21906;50.812;7.132;2022-10-16T10:45:26;1.60;;;1.07;;
4106;SDS011;21906;50.812;7.132;2022-10-16T10:48:06;1.10;;;1.00;;
4106;SDS011;21906;50.812;7.132;2022-10-16T11:01:48;1.10;;;1.00;;
4106;SDS011;21906;50.812;7.132;2022-10-16T11:04:37;1.20;;;0.90;;
4106;SDS011;21906;50.812;7.132;2022-10-16T11:07:13;1.73;;;0.97;;
4106;SDS011;21906;50.812;7.132;2022-10-16T11:09:51;1.97;;;1.60;;
4106;SDS011;21906;50.812;7.132;2022-10-16T11:12:44;1.17;;;0.90;;
4106;SDS011;21906;50.812;7.132;2022-10-16T11:15:15;1.50;;;0.83;;
4106;SDS011;21906;50.812;7.132;2022-10-16T11:18:08;2.27;;;0.93;;
4106;SDS011;21906;50.812;7.132;2022-10-16T11:20:37;1.20;;;0.90;;
4106;SDS011;21906;50.812;7.132;2022-10-16T11:26:13;1.00;;;0.90;;
4106;SDS011;21906;50.812;7.132;2022-10-16T11:28:49;1.23;;;0.80;;
4106;SDS011;21906;50.812;7.132;2022-10-16T11:31:36;1.00;;;0.90;;
4106;SDS011;21906;50.812;7.132;2022-10-16T11:34:05;1.73;;;1.00;;
4106;SDS011;21906;50.812;7.132;2022-10-16T11:41:33;0.90;;;0.80;;
4106;SDS011;21906;50.812;7.132;2022-10-16T11:46:26;2.50;;;1.30;;
4106;SDS011;21906;50.812;7.132;2022-10-16T11:51:36;1.00;;;0.90;;
4106;SDS011;21906;50.812;7.132;2022-10-16T11:56:43;0.90;;;0.80;;
4106;SDS011;21906;50.812;7.132;2022-10-16T11:59:35;1.00;;;0.90;;
4106;SDS011;21906;50.812;7.132;2022-10-16T12:10:34;1.57;;;0.80;;
4106;SDS011;21906;50.812;7.132;2022-10-16T12:13:03;1.00;;;0.80;;
4106;SDS011;21906;50.812;7.132;2022-10-16T12:15:31;1.17;;;1.07;;
4106;SDS011;21906;50.812;7.132;2022-10-16T12:17:59;1.67;;;0.80;;
4106;SDS011;21906;50.812;7.132;2022-10-16T12:20:27;1.10;;;1.00;;
4106;SDS011;21906;50.812;7.132;2022-10-16T12:22:56;1.47;;;1.27;;
4106;SDS011;21906;50.812;7.132;2022-10-16T12:28:01;1.00;;;0.90;;
4106;SDS011;21906;50.812;7.132;2022-10-16T12:30:31;1.10;;;1.00;;
4106;SDS011;21906;50.812;7.132;2022-10-16T12:33:01;1.70;;;1.00;;
4106;SDS011;21906;50.812;7.132;2022-10-16T12:35:33;1.00;;;0.90;;
4106;SDS011;21906;50.812;7.132;2022-10-16T12:38:36;1.07;;;0.97;;
4106;SDS011;21906;50.812;7.132;2022-10-16T12:41:05;1.10;;;1.00;;
4106;SDS011;21906;50.812;7.132;2022-10-16T12:43:39;2.63;;;1.07;;
4106;SDS011;21906;50.812;7.132;2022-10-16T12:48:40;1.00;;;0.90;;
4106;SDS011;21906;50.812;7.132;2022-10-16T12:51:32;0.90;;;0.80;;
4106;SDS011;21906;50.812;7.132;2022-10-16T12:59:42;1.83;;;1.23;;
4106;SDS011;21906;50.812;7.132;2022-10-16T13:19:35;1.00;;;0.90;;
4106;SDS011;21906;50.812;7.132;2022-10-16T13:22:17;1.03;;;0.93;;
4106;SDS011;21906;50.812;7.132;2022-10-16T13:27:59;0.97;;;0.90;;
4106;SDS011;21906;50.812;7.132;2022-10-16T13:30:27;1.83;;;0.83;;
4106;SDS011;21906;50.812;7.132;2022-10-16T13:35:30;1.00;;;0.90;;
4106;SDS011;21906;50.812;7.132;2022-10-16T13:38:13;1.20;;;1.10;;
4106;SDS011;21906;50.812;7.132;2022-10-16T13:40:53;1.40;;;1.30;;
4106;SDS011;21906;50.812;7.132;2022-10-16T13:45:58;1.10;;;1.00;;
4106;SDS011;21906;50.812;7.132;2022-10-16T13:48:28;1.60;;;1.10;;
4106;SDS011;21906;50.812;7.132;2022-10-16T13:51:00;1.10;;;1.00;;
4106;SDS011;21906;50.812;7.132;2022-10-16T13:53:44;1.20;;;1.10;;
4106;SDS011;21906;50.812;7.132;2022-10-16T13:56:12;1.10;;;1.00;;
4106;SDS011;21906;50.812;7.132;2022-10-16T13:58:39;1.83;;;1.23;;
4106;SDS011;21906;50.812;7.132;2022-10-16T14:01:15;1.10;;;1.00;;
4106;SDS011;21906;50.812;7.132;2022-10-16T14:03:41;1.10;;;1.00;;
4106;SDS011;21906;50.812;7.132;2022-10-16T14:06:11;1.10;;;1.00;;
4106;SDS011;21906;50.812;7.132;2022-10-16T14:08:44;1.00;;;0.90;;
4106;SDS011;21906;50.812;7.132;2022-10-16T14:11:13;1.10;;;1.00;;
4106;SDS011;21906;50.812;7.132;2022-10-16T14:13:48;1.10;;;1.00;;
4106;SDS011;21906;50.812;7.132;2022-10-16T14:16:16;1.10;;;0.90;;
4106;SDS011;21906;50.812;7.132;2022-10-16T14:18:58;1.00;;;0.90;;
4106;SDS011;21906;50.812;7.132;2022-10-16T14:21:27;1.10;;;1.00;;
4106;SDS011;21906;50.812;7.132;2022-10-16T14:23:53;1.10;;;0.90;;
4106;SDS011;21906;50.812;7.132;2022-10-16T14:26:21;1.10;;;1.00;;
4106;SDS011;21906;50.812;7.132;2022-10-16T14:29:00;3.20;;;1.10;;
4106;SDS011;21906;50.812;7.132;2022-10-16T14:31:35;0.87;;;0.87;;
4106;SDS011;21906;50.812;7.132;2022-10-16T14:34:02;1.00;;;0.90;;
4106;SDS011;21906;50.812;7.132;2022-10-16T14:36:29;1.00;;;0.90;;
4106;SDS011;21906;50.812;7.132;2022-10-16T14:39:02;1.00;;;0.90;;
4106;SDS011;21906;50.812;7.132;2022-10-16T14:41:30;1.10;;;1.00;;
4106;SDS011;21906;50.812;7.132;2022-10-16T14:44:04;1.20;;;1.10;;
4106;SDS011;21906;50.812;7.132;2022-10-16T14:46:37;1.20;;;1.10;;
4106;SDS011;21906;50.812;7.132;2022-10-16T14:51:34;1.37;;;1.20;;
4106;SDS011;21906;50.812;7.132;2022-10-16T14:54:00;1.30;;;1.20;;
4106;SDS011;21906;50.812;7.132;2022-10-16T14:56:30;1.30;;;1.20;;
4106;SDS011;21906;50.812;7.132;2022-10-16T14:59:34;1.60;;;1.50;;
4106;SDS011;21906;50.812;7.132;2022-10-16T15:04:53;1.40;;;1.10;;
4106;SDS011;21906;50.812;7.132;2022-10-16T15:07:20;1.43;;;1.33;;
4106;SDS011;21906;50.812;7.132;2022-10-16T15:09:46;2.10;;;1.40;;
4106;SDS011;21906;50.812;7.132;2022-10-16T15:12:12;1.83;;;1.30;;
4106;SDS011;21906;50.812;7.132;2022-10-16T15:14:38;1.50;;;1.40;;
4106;SDS011;21906;50.812;7.132;2022-10-16T15:17:03;1.90;;;1.70;;
4106;SDS011;21906;50.812;7.132;2022-10-16T15:19:29;1.60;;;1.50;;
4106;SDS011;21906;50.812;7.132;2022-10-16T15:21:55;1.93;;;1.47;;
4106;SDS011;21906;50.812;7.132;2022-10-16T15:24:21;1.50;;;1.40;;
4106;SDS011;21906;50.812;7.132;2022-10-16T15:26:47;2.17;;;1.57;;
4106;SDS011;21906;50.812;7.132;2022-10-16T15:29:13;2.20;;;1.30;;
4106;SDS011;21906;50.812;7.132;2022-10-16T15:31:39;1.63;;;1.53;;
4106;SDS011;21906;50.812;7.132;2022-10-16T15:34:08;1.43;;;1.33;;
4106;SDS011;21906;50.812;7.132;2022-10-16T15:36:36;1.40;;;1.30;;
4106;SDS011;21906;50.812;7.132;2022-10-16T15:39:03;3.40;;;1.40;;
4106;SDS011;21906;50.812;7.132;2022-10-16T15:41:30;2.80;;;1.30;;
4106;SDS011;21906;50.812;7.132;2022-10-16T15:43:55;2.60;;;1.40;;
4106;SDS011;21906;50.812;7.132;2022-10-16T15:46:22;1.77;;;1.40;;
4106;SDS011;21906;50.812;7.132;2022-10-16T15:48:49;1.50;;;1.40;;
4106;SDS011;21906;50.812;7.132;2022-10-16T15:51:16;1.70;;;1.60;;
4106;SDS011;21906;50.812;7.132;2022-10-16T15:53:43;1.63;;;1.53;;
4106;SDS011;21906;50.812;7.132;2022-10-16T15:56:11;2.00;;;1.90;;
4106;SDS011;21906;50.812;7.132;2022-10-16T15:58:38;2.07;;;1.87;;
4106;SDS011;21906;50.812;7.132;2022-10-16T16:01:04;1.77;;;1.60;;
4106;SDS011;21906;50.812;7.132;2022-10-16T16:03:30;1.83;;;1.73;;
4106;SDS011;21906;50.812;7.132;2022-10-16T16:05:57;3.40;;;1.80;;
4106;SDS011;21906;50.812;7.132;2022-10-16T16:08:28;1.70;;;1.60;;
4106;SDS011;21906;50.812;7.132;2022-10-16T16:13:35;3.20;;;1.67;;
4106;SDS011;21906;50.812;7.132;2022-10-16T16:16:08;2.30;;;2.13;;
4106;SDS011;21906;50.812;7.132;2022-10-16T16:18:36;2.40;;;2.20;;
4106;SDS011;21906;50.812;7.132;2022-10-16T16:21:02;2.10;;;1.90;;
4106;SDS011;21906;50.812;7.132;2022-10-16T16:23:28;1.90;;;1.80;;
4106;SDS011;21906;50.812;7.132;2022-10-16T16:26:04;4.30;;;1.80;;
4106;SDS011;21906;50.812;7.132;2022-10-16T16:28:31;1.90;;;1.80;;
4106;SDS011;21906;50.812;7.132;2022-10-16T16:30:57;2.10;;;2.00;;
4106;SDS011;21906;50.812;7.132;2022-10-16T16:33:23;2.30;;;2.00;;
4106;SDS011;21906;50.812;7.132;2022-10-16T16:35:49;1.80;;;1.70;;
4106;SDS011;21906;50.812;7.132;2022-10-16T16:38:14;2.97;;;2.03;;
4106;SDS011;21906;50.812;7.132;2022-10-16T16:40:40;2.10;;;2.00;;
4106;SDS011;21906;50.812;7.132;2022-10-16T16:43:05;2.00;;;1.90;;
4106;SDS011;21906;50.812;7.132;2022-10-16T16:45:34;2.90;;;1.80;;
4106;SDS011;21906;50.812;7.132;2022-10-16T16:48:00;1.90;;;1.80;;
4106;SDS011;21906;50.812;7.132;2022-10-16T16:50:26;2.90;;;1.80;;
4106;SDS011;21906;50.812;7.132;2022-10-16T16:52:51;2.17;;;1.90;;
4106;SDS011;21906;50.812;7.132;2022-10-16T16:55:17;2.03;;;1.93;;
4106;SDS011;21906;50.812;7.132;2022-10-16T16:57:42;2.10;;;2.00;;
4106;SDS011;21906;50.812;7.132;2022-10-16T17:00:08;2.30;;;2.20;;
4106;SDS011;21906;50.812;7.132;2022-10-16T17:02:34;2.70;;;2.50;;
4106;SDS011;21906;50.812;7.132;2022-10-16T17:05:00;2.30;;;2.10;;
4106;SDS011;21906;50.812;7.132;2022-10-16T17:07:26;2.70;;;2.50;;
4106;SDS011;21906;50.812;7.132;2022-10-16T17:09:55;2.17;;;1.97;;
4106;SDS011;21906;50.812;7.132;2022-10-16T17:12:21;1.93;;;1.70;;
4106;SDS011;21906;50.812;7.132;2022-10-16T17:14:46;2.03;;;1.93;;
4106;SDS011;21906;50.812;7.132;2022-10-16T17:17:12;2.53;;;2.33;;
4106;SDS011;21906;50.812;7.132;2022-10-16T17:19:37;2.20;;;2.10;;
4106;SDS011;21906;50.812;7.132;2022-10-16T17:22:03;2.23;;;2.00;;
4106;SDS011;21906;50.812;7.132;2022-10-16T17:24:29;2.23;;;2.07;;
4106;SDS011;21906;50.812;7.132;2022-10-16T17:26:54;2.13;;;1.93;;
4106;SDS011;21906;50.812;7.132;2022-10-16T17:29:20;2.40;;;2.20;;
4106;SDS011;21906;50.812;7.132;2022-10-16T17:31:46;2.10;;;2.00;;
4106;SDS011;21906;50.812;7.132;2022-10-16T17:34:13;1.90;;;1.80;;